createdAt,value
2018-08-11T00:02:33.689Z,54.60
2018-08-11T00:05:02.263Z,54.60
2018-08-11T00:07:30.809Z,54.90
2018-08-11T00:10:00.647Z,55.20
2018-08-11T00:12:29.127Z,54.90
2018-08-11T00:14:59.069Z,54.80
2018-08-11T00:17:27.732Z,55.70
2018-08-11T00:19:56.188Z,55.30
2018-08-11T00:22:24.940Z,55.30
2018-08-11T00:24:57.390Z,55.20
2018-08-11T00:27:30.422Z,55.30
2018-08-11T00:29:59.858Z,55.00
2018-08-11T00:32:28.860Z,55.10
2018-08-11T00:34:58.246Z,54.80
2018-08-11T00:37:27.236Z,54.90
2018-08-11T00:39:56.242Z,54.60
2018-08-11T00:42:25.017Z,54.90
2018-08-11T00:44:53.825Z,54.90
2018-08-11T00:47:22.533Z,54.90
2018-08-11T00:49:50.972Z,54.70
2018-08-11T00:52:19.473Z,55.50
2018-08-11T00:54:48.036Z,54.90
2018-08-11T00:57:16.560Z,54.70
2018-08-11T00:59:45.009Z,54.60
2018-08-11T01:02:13.950Z,54.50
2018-08-11T01:04:42.385Z,54.70
2018-08-11T01:07:10.838Z,54.50
2018-08-11T01:09:39.308Z,54.70
2018-08-11T01:12:07.755Z,54.50
2018-08-11T01:14:36.270Z,54.70
2018-08-11T01:17:04.754Z,54.70
2018-08-11T01:19:33.326Z,55.00
2018-08-11T01:22:01.733Z,54.90
2018-08-11T01:24:30.155Z,54.70
2018-08-11T01:26:58.602Z,54.70
2018-08-11T01:29:27.144Z,54.50
2018-08-11T01:31:55.595Z,54.60
2018-08-11T01:34:24.092Z,54.50
2018-08-11T01:36:52.625Z,54.40
2018-08-11T01:39:21.189Z,54.60
2018-08-11T01:41:49.609Z,54.70
2018-08-11T01:44:18.187Z,54.60
2018-08-11T01:46:46.648Z,54.60
2018-08-11T01:49:15.844Z,54.80
2018-08-11T01:51:44.390Z,55.00
2018-08-11T01:54:13.356Z,55.10
2018-08-11T01:56:42.275Z,56.00
2018-08-11T01:59:10.965Z,56.00
2018-08-11T02:01:39.421Z,57.40
2018-08-11T02:04:08.120Z,61.50
2018-08-11T02:06:36.848Z,67.10
2018-08-11T02:09:07.882Z,68.80
2018-08-11T02:11:36.492Z,69.40
2018-08-11T02:14:05.482Z,70.10
2018-08-11T02:16:35.977Z,70.30
2018-08-11T02:19:04.636Z,70.20
2018-08-11T02:21:33.142Z,72.10
2018-08-11T02:24:01.608Z,74.30
2018-08-11T02:26:30.030Z,74.90
2018-08-11T02:28:58.499Z,75.00
2018-08-11T02:31:27.012Z,75.70
2018-08-11T02:33:55.747Z,76.20
2018-08-11T02:36:24.187Z,75.60
2018-08-11T02:38:52.648Z,75.00
2018-08-11T02:41:21.123Z,74.90
2018-08-11T02:43:49.581Z,74.40
2018-08-11T02:46:18.584Z,74.60
2018-08-11T02:48:47.044Z,74.60
2018-08-11T02:51:15.520Z,75.50
2018-08-11T02:53:43.970Z,77.00
2018-08-11T02:56:12.453Z,77.00
2018-08-11T02:58:41.341Z,79.80
2018-08-11T03:01:09.941Z,80.20
2018-08-11T03:03:38.361Z,80.60
2018-08-11T03:06:07.029Z,80.60
2018-08-11T03:08:35.507Z,81.10
2018-08-11T03:11:04.020Z,81.80
2018-08-11T03:13:32.579Z,82.00
2018-08-11T03:16:01.063Z,82.20
2018-08-11T03:18:29.635Z,82.10
2018-08-11T03:20:58.102Z,82.70
2018-08-11T03:23:26.595Z,82.40
2018-08-11T03:25:55.067Z,82.90
2018-08-11T03:28:23.848Z,84.00
2018-08-11T03:30:52.245Z,83.70
2018-08-11T03:33:21.600Z,84.10
2018-08-11T03:35:50.843Z,84.00
2018-08-11T03:38:19.275Z,84.50
2018-08-11T03:40:47.738Z,84.60
2018-08-11T03:43:16.156Z,84.70
2018-08-11T03:45:44.588Z,84.70
2018-08-11T03:48:13.045Z,84.90
2018-08-11T03:50:41.590Z,85.50
2018-08-11T03:53:10.043Z,84.70
2018-08-11T03:55:38.620Z,85.90
2018-08-11T03:58:07.064Z,85.50
2018-08-11T04:00:35.564Z,85.70
2018-08-11T04:03:04.412Z,85.50
2018-08-11T04:05:32.893Z,85.50
2018-08-11T04:08:01.471Z,85.60
2018-08-11T04:10:29.979Z,85.20
2018-08-11T04:12:58.451Z,85.80
2018-08-11T04:15:27.324Z,85.60
2018-08-11T04:17:55.754Z,85.80
2018-08-11T04:20:24.259Z,86.10
2018-08-11T04:22:52.736Z,87.00
2018-08-11T04:25:21.229Z,86.80
2018-08-11T04:27:49.697Z,86.70
2018-08-11T04:30:18.145Z,86.80
2018-08-11T04:32:46.584Z,87.00
2018-08-11T04:35:15.052Z,87.70
2018-08-11T04:37:43.492Z,87.80
2018-08-11T04:40:11.948Z,87.70
2018-08-11T04:42:40.427Z,88.00
2018-08-11T04:45:09.309Z,87.80
2018-08-11T04:47:37.766Z,87.70
2018-08-11T04:50:06.501Z,87.30
2018-08-11T04:52:35.146Z,87.30
2018-08-11T04:55:03.967Z,87.00
2018-08-11T04:57:32.397Z,86.90
2018-08-11T05:00:00.898Z,86.60
2018-08-11T05:02:29.551Z,85.50
2018-08-11T05:04:58.013Z,85.20
2018-08-11T05:07:26.469Z,84.70
2018-08-11T05:09:55.287Z,85.20
2018-08-11T05:12:23.921Z,84.80
2018-08-11T05:14:52.520Z,84.50
2018-08-11T05:17:21.089Z,82.90
2018-08-11T05:19:49.679Z,78.70
2018-08-11T05:22:18.087Z,76.80
2018-08-11T05:24:46.590Z,76.00
2018-08-11T05:27:15.129Z,76.60
2018-08-11T05:29:43.552Z,74.70
2018-08-11T05:32:12.022Z,70.60
2018-08-11T05:34:40.479Z,67.80
2018-08-11T05:37:08.947Z,64.50
2018-08-11T05:39:37.406Z,62.70
2018-08-11T05:42:05.849Z,61.30
2018-08-11T05:44:34.264Z,62.00
2018-08-11T05:47:02.783Z,60.50
2018-08-11T05:49:31.254Z,61.10
2018-08-11T05:51:59.701Z,60.70
2018-08-11T05:54:28.163Z,59.70
2018-08-11T05:56:56.625Z,59.30
2018-08-11T05:59:25.073Z,61.40
2018-08-11T06:01:53.560Z,61.20
2018-08-11T06:04:22.009Z,59.20
2018-08-11T06:06:50.554Z,56.70
2018-08-11T06:09:18.998Z,57.40
2018-08-11T06:11:47.669Z,56.20
2018-08-11T06:14:16.093Z,55.80
2018-08-11T06:16:45.301Z,53.20
2018-08-11T06:19:13.749Z,52.70
2018-08-11T06:21:42.277Z,52.90
2018-08-11T06:24:10.762Z,53.60
2018-08-11T06:26:39.234Z,55.50
2018-08-11T06:29:08.176Z,58.30
2018-08-11T06:31:36.694Z,61.00
2018-08-11T06:34:05.076Z,64.70
2018-08-11T06:36:33.661Z,66.20
2018-08-11T06:39:02.195Z,67.20
2018-08-11T06:41:30.721Z,67.60
2018-08-11T06:43:59.472Z,67.40
2018-08-11T06:46:27.953Z,67.90
2018-08-11T06:48:56.399Z,67.60
2018-08-11T06:51:24.932Z,66.10
2018-08-11T06:53:53.367Z,65.20
2018-08-11T06:56:21.935Z,63.80
2018-08-11T06:58:50.455Z,64.10
2018-08-11T07:01:18.976Z,64.00
2018-08-11T07:03:47.389Z,64.20
2018-08-11T07:06:15.868Z,63.10
2018-08-11T07:08:44.366Z,61.20
2018-08-11T07:11:13.799Z,61.60
2018-08-11T07:13:42.224Z,62.60
2018-08-11T07:16:10.669Z,65.00
2018-08-11T07:18:39.124Z,67.70
2018-08-11T07:21:07.752Z,69.00
2018-08-11T07:23:36.451Z,64.40
2018-08-11T07:26:05.131Z,57.70
2018-08-11T07:28:33.643Z,53.40
2018-08-11T07:31:02.125Z,50.90
2018-08-11T07:33:31.015Z,50.00
2018-08-11T07:35:59.533Z,48.00
2018-08-11T07:38:28.015Z,45.60
2018-08-11T07:40:56.504Z,46.80
2018-08-11T07:43:25.131Z,46.30
2018-08-11T07:45:53.583Z,47.50
2018-08-11T07:48:22.127Z,44.80
2018-08-11T07:50:50.989Z,46.50
2018-08-11T07:53:19.447Z,49.90
2018-08-11T07:55:48.197Z,52.90
2018-08-11T07:58:16.714Z,51.30
2018-08-11T08:00:45.305Z,47.80
2018-08-11T08:03:13.766Z,44.80
2018-08-11T08:05:42.452Z,43.50
2018-08-11T08:08:19.919Z,42.30
2018-08-11T08:10:49.392Z,42.10
2018-08-11T08:13:21.919Z,46.00
2018-08-11T08:15:51.502Z,45.80
2018-08-11T08:18:21.497Z,46.70
2018-08-11T08:20:51.322Z,45.40
2018-08-11T08:23:20.384Z,43.70
2018-08-11T08:25:49.921Z,45.00
2018-08-11T08:28:18.505Z,46.20
2018-08-11T08:30:46.956Z,47.70
2018-08-11T08:33:15.424Z,47.60
2018-08-11T08:35:43.908Z,48.60
2018-08-11T08:38:12.487Z,47.80
2018-08-11T08:40:40.971Z,46.00
2018-08-11T08:43:09.599Z,46.00
2018-08-11T08:45:38.150Z,48.10
2018-08-11T08:48:07.411Z,50.00
2018-08-11T08:50:35.854Z,49.70
2018-08-11T08:53:04.360Z,46.50
2018-08-11T08:55:33.016Z,42.80
2018-08-11T08:58:01.648Z,39.80
2018-08-11T09:00:30.122Z,38.80
2018-08-11T09:02:58.629Z,38.20
2018-08-11T09:05:27.131Z,39.70
2018-08-11T09:07:55.626Z,41.70
2018-08-11T09:10:24.140Z,42.10
2018-08-11T09:12:52.614Z,40.60
2018-08-11T09:15:22.179Z,39.00
2018-08-11T09:17:50.705Z,38.70
2018-08-11T09:20:19.223Z,36.70
2018-08-11T09:22:47.688Z,37.40
2018-08-11T09:25:16.172Z,37.40
2018-08-11T09:27:44.785Z,35.70
2018-08-11T09:30:13.290Z,35.50
2018-08-11T09:32:41.741Z,35.70
2018-08-11T09:35:10.195Z,34.90
2018-08-11T09:37:38.648Z,35.40
2018-08-11T09:40:07.356Z,36.90
2018-08-11T09:42:35.974Z,37.10
2018-08-11T09:45:04.625Z,40.80
2018-08-11T09:47:33.099Z,41.00
2018-08-11T09:50:01.541Z,42.30
2018-08-11T09:52:30.033Z,44.20
2018-08-11T09:54:58.542Z,45.30
2018-08-11T09:57:26.994Z,45.00
2018-08-11T09:59:55.511Z,42.30
2018-08-11T10:02:23.950Z,39.20
2018-08-11T10:04:52.416Z,37.30
2018-08-11T10:07:20.864Z,36.00
2018-08-11T10:09:49.594Z,33.70
2018-08-11T10:12:18.224Z,33.20
2018-08-11T10:14:47.426Z,33.30
2018-08-11T10:17:15.868Z,34.00
2018-08-11T10:19:44.455Z,34.00
2018-08-11T10:22:13.470Z,34.90
2018-08-11T10:24:41.929Z,37.20
2018-08-11T10:27:11.380Z,37.60
2018-08-11T10:29:39.842Z,35.00
2018-08-11T10:32:08.318Z,34.00
2018-08-11T10:34:36.840Z,33.10
2018-08-11T10:37:05.386Z,32.00
2018-08-11T10:39:33.987Z,33.20
2018-08-11T10:42:02.579Z,33.40
2018-08-11T10:44:31.096Z,33.40
2018-08-11T10:46:59.569Z,33.40
2018-08-11T10:49:32.674Z,33.20
2018-08-11T10:52:08.368Z,34.90
2018-08-11T10:54:40.383Z,35.60
2018-08-11T10:57:14.203Z,38.50
2018-08-11T10:59:47.493Z,39.00
2018-08-11T11:02:20.864Z,39.60
2018-08-11T11:04:54.794Z,37.90
2018-08-11T11:07:30.909Z,36.50
2018-08-11T11:10:04.724Z,38.40
2018-08-11T11:12:37.808Z,36.60
2018-08-11T11:15:11.568Z,34.40
2018-08-11T11:17:45.108Z,34.30
2018-08-11T11:22:54.673Z,34.60
2018-08-11T11:25:26.952Z,33.90
2018-08-11T11:27:57.025Z,34.00
2018-08-11T11:30:27.286Z,34.40
2018-08-11T11:32:56.896Z,33.70
2018-08-11T11:35:25.820Z,34.70
2018-08-11T11:37:54.408Z,33.60
2018-08-11T11:40:22.899Z,33.60
2018-08-11T11:42:51.390Z,34.20
2018-08-11T11:45:19.832Z,34.50
2018-08-11T11:47:48.304Z,35.40
2018-08-11T11:50:16.830Z,36.70
2018-08-11T11:52:45.450Z,36.20
2018-08-11T11:55:13.909Z,35.60
2018-08-11T11:57:42.410Z,34.00
2018-08-11T12:00:11.049Z,33.70
2018-08-11T12:02:39.662Z,32.30
2018-08-11T12:05:08.357Z,32.30
2018-08-11T12:07:37.037Z,33.70
2018-08-11T12:10:05.527Z,33.80
2018-08-11T12:12:34.082Z,33.60
2018-08-11T12:15:03.348Z,33.40
2018-08-11T12:17:31.945Z,33.80
2018-08-11T12:20:00.589Z,35.20
2018-08-11T12:22:29.015Z,35.70
2018-08-11T12:24:57.458Z,36.40
2018-08-11T12:27:25.920Z,36.90
2018-08-11T12:29:54.367Z,37.80
2018-08-11T12:32:23.636Z,37.10
2018-08-11T12:34:52.117Z,37.10
2018-08-11T12:37:20.575Z,37.10
2018-08-11T12:39:49.035Z,37.90
2018-08-11T12:42:17.556Z,37.00
2018-08-11T12:44:46.040Z,37.00
2018-08-11T12:47:14.528Z,37.00
2018-08-11T12:49:42.961Z,37.50
2018-08-11T12:52:11.411Z,37.60
2018-08-11T12:54:40.394Z,37.30
2018-08-11T12:57:08.981Z,36.30
2018-08-11T12:59:37.445Z,36.50
2018-08-11T13:02:05.921Z,36.50
2018-08-11T13:04:34.408Z,36.40
2018-08-11T13:07:02.894Z,36.40
2018-08-11T13:09:31.371Z,36.30
2018-08-11T13:11:59.952Z,36.40
2018-08-11T13:14:28.514Z,36.00
2018-08-11T13:16:56.951Z,36.80
2018-08-11T13:19:25.601Z,36.80
2018-08-11T13:21:54.149Z,36.80
2018-08-11T13:24:22.718Z,35.80
2018-08-11T13:26:51.232Z,35.50
2018-08-11T13:29:19.891Z,35.70
2018-08-11T13:31:48.352Z,35.00
2018-08-11T13:34:16.791Z,35.40
2018-08-11T13:36:45.252Z,36.10
2018-08-11T13:39:13.748Z,36.00
2018-08-11T13:41:45.838Z,35.50
2018-08-11T13:44:15.200Z,35.70
2018-08-11T13:46:43.664Z,35.40
2018-08-11T13:49:12.098Z,35.40
2018-08-11T13:51:40.585Z,34.80
2018-08-11T13:54:09.502Z,35.00
2018-08-11T13:56:38.603Z,35.50
2018-08-11T13:59:07.277Z,34.90
2018-08-11T14:01:36.144Z,35.20
2018-08-11T14:04:04.874Z,35.20
2018-08-11T14:06:33.417Z,35.60
2018-08-11T14:09:01.889Z,35.70
2018-08-11T14:11:30.392Z,35.30
2018-08-11T14:13:58.851Z,34.70
2018-08-11T14:16:27.355Z,35.00
2018-08-11T14:18:55.933Z,35.80
2018-08-11T14:21:24.574Z,36.40
2018-08-11T14:23:53.017Z,35.40
2018-08-11T14:26:21.764Z,35.30
2018-08-11T14:28:50.232Z,35.60
2018-08-11T14:31:18.735Z,35.60
2018-08-11T14:33:47.998Z,35.90
2018-08-11T14:36:21.912Z,36.00
2018-08-11T14:38:51.351Z,35.50
2018-08-11T14:41:19.995Z,35.80
2018-08-11T14:43:48.469Z,35.20
2018-08-11T14:46:18.101Z,35.50
2018-08-11T14:48:46.756Z,35.80
2018-08-11T14:51:15.228Z,35.30
2018-08-11T14:53:43.721Z,34.80
2018-08-11T14:56:12.196Z,34.60
2018-08-11T14:58:41.085Z,34.40
2018-08-11T15:01:10.036Z,34.80
2018-08-11T15:03:38.559Z,35.30
2018-08-11T15:06:06.985Z,36.00
2018-08-11T15:08:35.451Z,36.00
2018-08-11T15:11:04.205Z,35.70
2018-08-11T15:13:32.654Z,35.80
2018-08-11T15:16:01.263Z,35.10
2018-08-11T15:18:29.795Z,35.20
2018-08-11T15:20:58.390Z,35.20
2018-08-11T15:23:26.867Z,35.70
2018-08-11T15:25:55.381Z,35.10
2018-08-11T15:28:23.844Z,35.20
2018-08-11T15:30:52.366Z,35.40
2018-08-11T15:33:20.830Z,35.50
2018-08-11T15:35:49.810Z,35.40
2018-08-11T15:38:18.379Z,35.40
2018-08-11T15:40:46.821Z,35.70
2018-08-11T15:43:15.371Z,36.00
2018-08-11T15:45:43.865Z,36.00
2018-08-11T15:48:12.339Z,36.10
2018-08-11T15:50:40.800Z,36.60
2018-08-11T15:53:09.420Z,36.20
2018-08-11T15:55:37.875Z,36.70
2018-08-11T15:58:06.723Z,36.40
2018-08-11T16:00:35.160Z,35.70
2018-08-11T16:03:03.739Z,36.30
2018-08-11T16:05:33.171Z,35.70
2018-08-11T16:08:01.740Z,36.50
2018-08-11T16:10:30.594Z,36.70
2018-08-11T16:12:59.120Z,36.90
2018-08-11T16:15:27.532Z,37.00
2018-08-11T16:17:57.156Z,36.50
2018-08-11T16:20:25.701Z,36.10
2018-08-11T16:22:54.195Z,36.40
2018-08-11T16:25:23.003Z,37.10
2018-08-11T16:27:51.493Z,36.50
2018-08-11T16:30:19.972Z,36.30
2018-08-11T16:32:48.532Z,36.70
2018-08-11T16:35:17.041Z,36.70
2018-08-11T16:37:45.479Z,36.40
2018-08-11T16:40:13.949Z,36.80
2018-08-11T16:42:42.388Z,36.70
2018-08-11T16:45:11.040Z,37.00
2018-08-11T16:47:39.984Z,36.70
2018-08-11T16:50:08.600Z,36.30
2018-08-11T16:52:37.096Z,37.30
2018-08-11T16:55:06.440Z,36.70
2018-08-11T16:57:35.001Z,37.00
2018-08-11T17:00:03.501Z,37.20
2018-08-11T17:02:32.297Z,37.00
2018-08-11T17:05:00.709Z,37.70
2018-08-11T17:07:29.189Z,37.50
2018-08-11T17:09:57.708Z,37.70
2018-08-11T17:12:26.198Z,37.60
2018-08-11T17:14:54.745Z,37.80
2018-08-11T17:17:23.193Z,38.00
2018-08-11T17:19:51.676Z,37.90
2018-08-11T17:22:20.097Z,37.60
2018-08-11T17:24:48.584Z,37.70
2018-08-11T17:27:17.099Z,38.00
2018-08-11T17:29:45.567Z,38.10
2018-08-11T17:32:14.020Z,38.10
2018-08-11T17:34:42.525Z,38.20
2018-08-11T17:37:11.000Z,38.20
2018-08-11T17:39:39.840Z,38.50
2018-08-11T17:42:09.000Z,38.90
2018-08-11T17:44:37.592Z,38.60
2018-08-11T17:47:06.180Z,39.50
2018-08-11T17:49:34.648Z,39.20
2018-08-11T17:52:03.302Z,38.90
2018-08-11T17:54:31.927Z,39.00
2018-08-11T17:57:00.709Z,39.30
2018-08-11T17:59:29.541Z,39.60
2018-08-11T18:01:58.144Z,39.70
2018-08-11T18:04:26.648Z,39.90
2018-08-11T18:06:55.459Z,39.70
2018-08-11T18:09:24.157Z,39.90
2018-08-11T18:11:52.685Z,40.50
2018-08-11T18:14:21.977Z,40.80
2018-08-11T18:16:50.579Z,40.50
2018-08-11T18:19:19.074Z,40.10
2018-08-11T18:21:47.558Z,40.10
2018-08-11T18:24:16.099Z,40.50
2018-08-11T18:26:44.620Z,40.40
2018-08-11T18:29:14.297Z,40.60
2018-08-11T18:31:42.719Z,40.70
2018-08-11T18:34:11.157Z,41.20
2018-08-11T18:36:40.008Z,41.80
2018-08-11T18:39:11.157Z,42.00
2018-08-11T18:41:39.643Z,42.40
2018-08-11T18:44:08.083Z,42.30
2018-08-11T18:46:36.835Z,41.40
2018-08-11T18:49:05.748Z,41.90
2018-08-11T18:51:35.365Z,42.10
2018-08-11T18:54:04.026Z,43.00
2018-08-11T18:56:32.593Z,43.10
2018-08-11T18:59:01.083Z,43.40
2018-08-11T19:01:29.725Z,43.20
2018-08-11T19:03:58.186Z,43.40
2018-08-11T19:06:26.828Z,43.30
2018-08-11T19:08:57.208Z,43.70
2018-08-11T19:11:25.952Z,43.20
2018-08-11T19:13:54.783Z,43.80
2018-08-11T19:16:23.588Z,44.20
2018-08-11T19:18:52.405Z,44.70
2018-08-11T19:21:20.920Z,45.30
2018-08-11T19:23:49.567Z,45.50
2018-08-11T19:26:18.140Z,45.50
2018-08-11T19:28:46.656Z,45.70
2018-08-11T19:31:15.214Z,45.70
2018-08-11T19:33:44.095Z,45.60
2018-08-11T19:36:12.645Z,46.00
2018-08-11T19:38:41.189Z,46.50
2018-08-11T19:41:09.758Z,46.80
2018-08-11T19:43:38.396Z,47.30
2018-08-11T19:46:07.229Z,47.30
2018-08-11T19:48:35.844Z,47.40
2018-08-11T19:51:04.577Z,47.30
2018-08-11T19:53:33.123Z,48.20
2018-08-11T19:56:01.779Z,48.90
2018-08-11T19:58:30.329Z,49.20
2018-08-11T20:01:00.068Z,49.90
2018-08-11T20:03:28.844Z,50.00
2018-08-11T20:05:57.324Z,50.50
2018-08-11T20:08:25.897Z,50.50
2018-08-11T20:10:54.857Z,50.60
2018-08-11T20:13:23.590Z,51.10
2018-08-11T20:15:53.133Z,51.60
2018-08-11T20:18:21.613Z,52.00
2018-08-11T20:20:50.132Z,52.20
2018-08-11T20:23:19.150Z,52.80
2018-08-11T20:25:48.807Z,53.20
2018-08-11T20:28:18.056Z,53.60
2018-08-11T20:30:46.620Z,54.60
2018-08-11T20:33:15.130Z,54.80
2018-08-11T20:35:43.962Z,55.30
2018-08-11T20:38:12.737Z,55.70
2018-08-11T20:40:41.293Z,56.00
2018-08-11T20:43:09.822Z,56.30
2018-08-11T20:45:38.311Z,56.50
2018-08-11T20:48:06.964Z,56.60
2018-08-11T20:50:35.474Z,57.10
2018-08-11T20:53:03.969Z,57.50
2018-08-11T20:55:32.457Z,57.80
2018-08-11T20:58:01.024Z,58.00
2018-08-11T21:00:29.523Z,58.50
2018-08-11T21:02:58.041Z,58.90
2018-08-11T21:05:26.533Z,59.10
2018-08-11T21:07:55.196Z,59.90
2018-08-11T21:10:23.672Z,60.50
2018-08-11T21:12:52.273Z,60.70
2018-08-11T21:15:20.747Z,61.00
2018-08-11T21:17:49.253Z,61.20
2018-08-11T21:20:17.757Z,61.20
2018-08-11T21:22:46.180Z,61.20
2018-08-11T21:25:14.654Z,61.90
2018-08-11T21:27:43.274Z,62.00
2018-08-11T21:30:14.204Z,62.30
2018-08-11T21:32:42.893Z,62.70
2018-08-11T21:35:11.660Z,62.80
2018-08-11T21:37:40.189Z,62.50
2018-08-11T21:40:12.099Z,63.30
2018-08-11T21:42:40.914Z,63.60
2018-08-11T21:45:10.232Z,63.50
2018-08-11T21:47:39.537Z,63.50
2018-08-11T21:50:08.676Z,64.70
2018-08-11T21:52:38.611Z,64.10
2018-08-11T21:55:07.888Z,64.50
2018-08-11T21:57:37.108Z,64.90
2018-08-11T22:00:38.245Z,65.30
2018-08-11T22:03:08.368Z,66.00
2018-08-11T22:05:36.820Z,66.90
2018-08-11T22:08:05.330Z,66.30
2018-08-11T22:10:33.863Z,67.00
2018-08-11T22:13:02.705Z,67.20
2018-08-11T22:15:31.188Z,67.80
2018-08-11T22:22:59.259Z,68.70
2018-08-11T22:25:27.743Z,69.20
2018-08-11T22:27:56.211Z,70.20
2018-08-11T22:30:24.753Z,70.70
2018-08-11T22:32:53.323Z,71.10
2018-08-11T22:35:21.835Z,70.80
2018-08-11T22:37:50.290Z,70.40
2018-08-11T22:40:18.799Z,70.60
2018-08-11T22:42:47.264Z,70.70
2018-08-11T22:45:15.782Z,70.80
2018-08-11T22:47:44.322Z,70.30
2018-08-11T22:50:14.092Z,70.00
2018-08-11T22:52:42.599Z,69.90
2018-08-11T22:55:11.107Z,69.60
2018-08-11T22:57:39.676Z,68.90
2018-08-11T23:00:13.201Z,69.20
2018-08-11T23:02:41.811Z,68.80
2018-08-11T23:05:11.001Z,68.40
2018-08-11T23:07:39.989Z,68.10
2018-08-11T23:10:10.524Z,68.20
2018-08-11T23:12:39.247Z,68.40
2018-08-11T23:15:11.357Z,68.70
2018-08-11T23:17:40.262Z,69.00
2018-08-11T23:20:09.377Z,68.70
2018-08-11T23:22:38.015Z,68.30
2018-08-11T23:25:07.404Z,67.60
2018-08-11T23:27:36.453Z,67.50
2018-08-11T23:30:06.528Z,67.90
2018-08-11T23:32:35.071Z,67.60
2018-08-11T23:35:03.603Z,67.60
2018-08-11T23:37:32.259Z,67.90
2018-08-11T23:40:00.682Z,68.00
2018-08-11T23:42:29.181Z,68.00
2018-08-11T23:44:57.740Z,68.20
2018-08-11T23:47:26.223Z,68.20
2018-08-11T23:49:55.230Z,68.00
2018-08-11T23:52:23.657Z,67.90
2018-08-11T23:54:52.155Z,68.10
2018-08-11T23:57:20.724Z,67.80
2018-08-11T23:59:49.151Z,67.30
